Time;durP1;ratioP1;P1;durP2;ratioP2;P2;SDS_P1;SDS_P2;PMS_P1;PMS_P2;Temp;Humidity;BMP_temperature;BMP_pressure;BME280_temperature;BME280_humidity;BME280_pressure;Samples;Min_cycle;Max_cycle;Signal;HPM_P1;HPM_P2
2022/11/03 00:02:21;;;;;;;18.10;4.32;;;;;;;;;;4995029;28;20437;-89
2022/11/03 00:04:47;;;;;;;17.10;4.50;;;;;;;;;;4995096;28;20471;-77
2022/11/03 00:07:19;;;;;;;15.00;4.28;;;;;;;;;;4994948;28;20432;-77
2022/11/03 00:09:45;;;;;;;17.35;4.28;;;;;;;;;;5011156;28;20516;-77
2022/11/03 00:12:11;;;;;;;15.55;4.60;;;;;;;;;;4975414;28;20500;-77
2022/11/03 00:14:37;;;;;;;15.40;4.40;;;;;;;;;;4993239;28;20419;-78
2022/11/03 00:17:03;;;;;;;14.32;4.30;;;;;;;;;;5010984;28;20475;-78
2022/11/03 00:19:29;;;;;;;14.77;4.10;;;;;;;;;;4994754;28;20424;-77
2022/11/03 00:21:57;;;;;;;15.02;4.20;;;;;;;;;;4994868;28;20435;-80
2022/11/03 00:24:23;;;;;;;17.17;4.50;;;;;;;;;;5011044;28;20459;-80
2022/11/03 00:26:49;;;;;;;14.73;4.40;;;;;;;;;;5009553;28;20439;-80
2022/11/03 00:29:15;;;;;;;15.65;4.22;;;;;;;;;;5010789;28;20417;-80
2022/11/03 00:31:42;;;;;;;17.20;4.13;;;;;;;;;;4994475;28;20424;-80
2022/11/03 00:34:09;;;;;;;15.23;4.22;;;;;;;;;;4994217;28;20510;-80
2022/11/03 00:36:42;;;;;;;15.23;4.40;;;;;;;;;;5002495;28;20446;-89
2022/11/03 00:39:09;;;;;;;14.75;4.30;;;;;;;;;;5000944;28;20432;-89
2022/11/03 00:41:35;;;;;;;15.13;4.13;;;;;;;;;;4975114;28;20429;-89
2022/11/03 00:44:01;;;;;;;15.97;4.50;;;;;;;;;;4995805;28;20424;-88
2022/11/03 00:46:29;;;;;;;14.93;4.30;;;;;;;;;;4987250;28;20453;-89
2022/11/03 00:48:55;;;;;;;12.68;4.28;;;;;;;;;;5009784;28;20427;-89
2022/11/03 00:51:22;;;;;;;16.02;4.15;;;;;;;;;;5010250;28;20435;-89
2022/11/03 00:53:50;;;;;;;15.75;4.18;;;;;;;;;;5010370;28;20467;-81
2022/11/03 00:56:18;;;;;;;14.65;4.13;;;;;;;;;;5010446;28;20425;-81
2022/11/03 00:58:45;;;;;;;15.05;4.13;;;;;;;;;;4994867;28;20429;-81
2022/11/03 01:01:12;;;;;;;15.20;4.05;;;;;;;;;;4993316;28;20432;-81
2022/11/03 01:03:39;;;;;;;16.00;3.80;;;;;;;;;;5010207;28;20428;-81
2022/11/03 01:08:51;;;;;;;14.75;4.38;;;;;;;;;;4995045;28;20463;-77
2022/11/03 01:14:04;;;;;;;13.73;4.22;;;;;;;;;;4993911;28;20435;-88
2022/11/03 01:16:31;;;;;;;13.65;3.92;;;;;;;;;;5005880;28;20459;-89
2022/11/03 01:18:57;;;;;;;15.18;4.05;;;;;;;;;;4990232;28;20422;-81
2022/11/03 01:21:23;;;;;;;13.27;3.83;;;;;;;;;;5004996;28;20458;-80
2022/11/03 01:23:49;;;;;;;12.95;3.95;;;;;;;;;;4994000;28;20428;-80
2022/11/03 01:26:16;;;;;;;14.87;4.00;;;;;;;;;;4985837;28;20430;-80
2022/11/03 01:28:43;;;;;;;15.95;4.00;;;;;;;;;;5007282;28;20425;-77
2022/11/03 01:31:17;;;;;;;16.40;4.25;;;;;;;;;;5006051;28;20421;-77
2022/11/03 01:33:46;;;;;;;15.90;3.85;;;;;;;;;;4989706;28;20459;-77
2022/11/03 01:36:13;;;;;;;15.05;4.00;;;;;;;;;;5013828;28;20433;-78
2022/11/03 01:38:39;;;;;;;15.80;4.00;;;;;;;;;;5005659;28;20468;-77
2022/11/03 01:41:07;;;;;;;14.98;3.90;;;;;;;;;;5009509;28;20443;-77
2022/11/03 01:43:33;;;;;;;12.95;3.70;;;;;;;;;;5009490;28;20431;-77
2022/11/03 01:45:59;;;;;;;15.35;4.05;;;;;;;;;;4992942;28;20437;-77
2022/11/03 01:48:25;;;;;;;15.40;3.93;;;;;;;;;;4991338;28;20435;-77
2022/11/03 01:50:52;;;;;;;14.52;4.10;;;;;;;;;;4992882;28;20436;-78
2022/11/03 01:53:18;;;;;;;14.23;4.38;;;;;;;;;;4992767;28;20429;-77
2022/11/03 01:55:45;;;;;;;14.18;4.30;;;;;;;;;;5006195;28;20433;-75
2022/11/03 01:58:15;;;;;;;14.40;4.28;;;;;;;;;;4993770;28;20443;-75
2022/11/03 02:00:42;;;;;;;14.40;4.40;;;;;;;;;;4994148;28;20408;-78
2022/11/03 02:03:09;;;;;;;13.27;3.88;;;;;;;;;;4994151;28;20412;-78
2022/11/03 02:05:35;;;;;;;14.32;4.13;;;;;;;;;;4992534;28;20433;-78
2022/11/03 02:08:20;;;;;;;15.03;4.10;;;;;;;;;;4993354;28;20428;-78
2022/11/03 02:10:47;;;;;;;13.35;3.95;;;;;;;;;;4996433;28;20450;-79
2022/11/03 02:13:18;;;;;;;13.37;3.97;;;;;;;;;;4993483;28;20434;-78
2022/11/03 02:15:44;;;;;;;14.67;4.10;;;;;;;;;;4989811;28;20447;-78
2022/11/03 02:18:11;;;;;;;13.95;4.03;;;;;;;;;;4979987;28;20416;-76
2022/11/03 02:20:38;;;;;;;12.63;3.80;;;;;;;;;;4992466;28;20422;-75
2022/11/03 02:23:23;;;;;;;17.07;4.50;;;;;;;;;;4978693;28;20496;-76
2022/11/03 02:25:53;;;;;;;15.75;3.90;;;;;;;;;;4989994;28;20449;-75
2022/11/03 02:28:29;;;;;;;12.02;3.58;;;;;;;;;;4989981;28;20429;-76
2022/11/03 02:31:07;;;;;;;13.35;4.13;;;;;;;;;;4992817;28;20458;-76
2022/11/03 02:33:52;;;;;;;16.33;4.33;;;;;;;;;;5008283;28;20461;-75
2022/11/03 02:36:27;;;;;;;15.05;3.97;;;;;;;;;;4993073;28;20412;-75
2022/11/03 02:39:05;;;;;;;13.20;3.90;;;;;;;;;;4988251;28;20473;-76
2022/11/03 02:41:33;;;;;;;13.77;3.80;;;;;;;;;;4998789;28;20445;-75
2022/11/03 02:44:00;;;;;;;12.93;3.70;;;;;;;;;;4993166;28;20436;-75
2022/11/03 02:46:27;;;;;;;13.73;3.60;;;;;;;;;;4976406;28;20444;-75
2022/11/03 02:48:53;;;;;;;13.75;3.88;;;;;;;;;;4993291;28;20444;-75
2022/11/03 02:51:19;;;;;;;13.30;3.80;;;;;;;;;;4992779;28;20437;-78
2022/11/03 02:53:48;;;;;;;12.88;3.70;;;;;;;;;;5004369;28;20487;-78
2022/11/03 02:56:18;;;;;;;13.52;3.85;;;;;;;;;;4988955;28;20432;-78
2022/11/03 02:58:57;;;;;;;11.82;3.75;;;;;;;;;;4992117;28;20417;-78
2022/11/03 03:01:23;;;;;;;12.50;3.72;;;;;;;;;;4992390;28;20420;-78
2022/11/03 03:04:00;;;;;;;15.05;3.97;;;;;;;;;;4993258;28;20439;-78
2022/11/03 03:06:35;;;;;;;13.70;3.80;;;;;;;;;;4992519;28;20439;-78
2022/11/03 03:09:04;;;;;;;13.63;3.80;;;;;;;;;;4992039;28;20531;-90
2022/11/03 03:11:39;;;;;;;13.00;3.88;;;;;;;;;;4981698;28;20424;-88
2022/11/03 03:14:05;;;;;;;15.03;4.10;;;;;;;;;;4991800;28;20467;-82
2022/11/03 03:16:32;;;;;;;11.95;3.70;;;;;;;;;;4992196;28;20429;-88
2022/11/03 03:19:08;;;;;;;13.75;3.50;;;;;;;;;;4992257;28;20424;-87
2022/11/03 03:21:37;;;;;;;12.27;3.97;;;;;;;;;;4993420;28;20420;-87
2022/11/03 03:24:07;;;;;;;13.27;3.80;;;;;;;;;;4992388;28;20437;-78
2022/11/03 03:26:35;;;;;;;10.57;3.50;;;;;;;;;;5012233;28;20454;-79
2022/11/03 03:29:11;;;;;;;13.05;3.75;;;;;;;;;;5009424;28;20420;-79
2022/11/03 03:31:38;;;;;;;12.00;3.92;;;;;;;;;;5011850;28;20428;-78
2022/11/03 03:34:05;;;;;;;13.90;3.85;;;;;;;;;;5011725;28;20436;-78
2022/11/03 03:36:31;;;;;;;15.40;3.90;;;;;;;;;;4995525;28;20440;-78
2022/11/03 03:39:00;;;;;;;14.73;3.70;;;;;;;;;;4995842;28;20440;-78
2022/11/03 03:41:28;;;;;;;13.27;3.70;;;;;;;;;;4994952;28;20464;-75
2022/11/03 03:43:56;;;;;;;15.43;4.00;;;;;;;;;;4994876;28;20433;-76
2022/11/03 03:46:25;;;;;;;15.43;3.63;;;;;;;;;;4995722;28;20444;-76
2022/11/03 03:48:51;;;;;;;15.13;4.10;;;;;;;;;;4997736;28;20432;-75
2022/11/03 03:51:19;;;;;;;15.05;3.90;;;;;;;;;;4978934;28;20420;-75
2022/11/03 03:53:49;;;;;;;11.98;3.50;;;;;;;;;;4995020;28;20429;-76
2022/11/03 03:56:16;;;;;;;12.10;3.78;;;;;;;;;;4994914;28;20464;-77
2022/11/03 03:58:42;;;;;;;11.52;3.47;;;;;;;;;;4998147;28;20436;-88
2022/11/03 04:01:10;;;;;;;13.90;3.80;;;;;;;;;;4984303;28;20436;-87
2022/11/03 04:03:36;;;;;;;11.10;3.30;;;;;;;;;;4995562;28;20428;-90
2022/11/03 04:06:02;;;;;;;11.37;3.50;;;;;;;;;;4979689;28;20448;-87
2022/11/03 04:08:28;;;;;;;14.57;3.87;;;;;;;;;;4979015;28;20444;-88
2022/11/03 04:24:39;;;;;;;9.20;3.40;;;;;;;;;;5003595;28;20535;-80
2022/11/03 04:27:15;;;;;;;14.03;3.70;;;;;;;;;;4979466;28;20547;-79
2022/11/03 04:29:41;;;;;;;13.27;3.50;;;;;;;;;;4994763;28;20441;-79
2022/11/03 04:32:13;;;;;;;12.63;3.67;;;;;;;;;;4994334;28;20429;-76
2022/11/03 04:34:40;;;;;;;17.20;3.97;;;;;;;;;;4994238;28;20432;-76
2022/11/03 04:37:09;;;;;;;11.05;3.72;;;;;;;;;;4976755;28;20440;-76
2022/11/03 04:39:35;;;;;;;13.55;3.58;;;;;;;;;;4994074;28;20416;-76
2022/11/03 04:42:01;;;;;;;12.13;4.00;;;;;;;;;;4979079;28;20471;-76
2022/11/03 04:44:27;;;;;;;13.45;3.70;;;;;;;;;;4977646;28;20436;-76
2022/11/03 04:46:54;;;;;;;12.65;3.58;;;;;;;;;;4992740;28;20436;-88
2022/11/03 04:49:22;;;;;;;13.68;4.03;;;;;;;;;;4995282;28;20440;-86
2022/11/03 04:51:48;;;;;;;12.63;4.05;;;;;;;;;;4994458;28;20427;-88
2022/11/03 04:54:22;;;;;;;12.88;3.70;;;;;;;;;;4994162;28;20428;-87
2022/11/03 04:56:48;;;;;;;12.73;3.60;;;;;;;;;;5009466;28;20488;-87
2022/11/03 04:59:15;;;;;;;12.70;3.40;;;;;;;;;;4992964;28;20451;-88
2022/11/03 05:01:43;;;;;;;13.88;3.97;;;;;;;;;;4993996;28;20456;-88
2022/11/03 05:04:13;;;;;;;13.02;3.83;;;;;;;;;;4994690;28;20491;-79
2022/11/03 05:06:39;;;;;;;11.45;3.72;;;;;;;;;;4991456;28;20450;-79
2022/11/03 05:09:11;;;;;;;14.02;3.72;;;;;;;;;;5009464;28;20425;-79
2022/11/03 05:11:38;;;;;;;11.43;3.70;;;;;;;;;;4995224;28;20436;-78
2022/11/03 05:14:12;;;;;;;14.60;3.78;;;;;;;;;;4993485;28;20430;-78
2022/11/03 05:16:38;;;;;;;13.77;3.63;;;;;;;;;;4993247;28;20555;-79
2022/11/03 05:19:12;;;;;;;11.83;3.40;;;;;;;;;;4977177;28;20529;-79
2022/11/03 05:21:38;;;;;;;12.70;3.70;;;;;;;;;;4993611;28;20527;-79
2022/11/03 05:24:09;;;;;;;13.37;3.80;;;;;;;;;;4993331;28;20439;-79
2022/11/03 05:26:35;;;;;;;12.52;3.55;;;;;;;;;;4988491;28;20506;-81
2022/11/03 05:29:03;;;;;;;10.88;3.58;;;;;;;;;;4993783;28;20440;-80
2022/11/03 05:31:30;;;;;;;9.82;3.60;;;;;;;;;;4977372;28;20432;-80
2022/11/03 05:34:01;;;;;;;14.43;3.88;;;;;;;;;;4991824;28;20459;-80
2022/11/03 05:36:30;;;;;;;12.27;3.80;;;;;;;;;;4996116;28;20424;-80
2022/11/03 05:39:01;;;;;;;10.18;3.65;;;;;;;;;;4993523;28;20428;-89
2022/11/03 05:41:30;;;;;;;13.57;3.80;;;;;;;;;;5010526;28;20421;-89
2022/11/03 05:44:01;;;;;;;12.77;3.50;;;;;;;;;;5007731;28;20425;-89
2022/11/03 05:46:29;;;;;;;10.82;3.83;;;;;;;;;;5007248;28;20499;-89
2022/11/03 05:48:56;;;;;;;13.70;3.47;;;;;;;;;;5004845;28;20427;-88
2022/11/03 05:51:24;;;;;;;13.15;3.85;;;;;;;;;;4993518;28;20424;-89
2022/11/03 05:53:54;;;;;;;11.13;3.60;;;;;;;;;;4993635;28;20419;-81
2022/11/03 05:56:21;;;;;;;12.32;3.50;;;;;;;;;;4990406;28;20473;-80
2022/11/03 05:58:48;;;;;;;11.30;3.67;;;;;;;;;;4990304;28;20414;-81
2022/11/03 06:01:24;;;;;;;10.98;3.85;;;;;;;;;;4991708;28;20422;-80
2022/11/03 06:03:50;;;;;;;11.75;3.60;;;;;;;;;;5009854;28;20419;-80
2022/11/03 06:06:16;;;;;;;14.90;3.78;;;;;;;;;;4994183;28;20452;-80
2022/11/03 06:08:42;;;;;;;13.32;3.90;;;;;;;;;;5010667;22;20456;-77
2022/11/03 06:11:09;;;;;;;10.52;3.50;;;;;;;;;;4989252;28;20503;-79
2022/11/03 06:13:37;;;;;;;10.75;3.72;;;;;;;;;;5012527;28;20407;-80
2022/11/03 06:16:26;;;;;;;14.73;3.97;;;;;;;;;;5011078;28;20425;-80
2022/11/03 06:18:52;;;;;;;14.02;3.58;;;;;;;;;;5007998;28;20558;-80
2022/11/03 06:21:23;;;;;;;13.75;3.88;;;;;;;;;;4995506;28;20502;-80
2022/11/03 06:23:49;;;;;;;14.05;3.83;;;;;;;;;;5011992;28;20479;-80
2022/11/03 06:26:20;;;;;;;10.52;3.50;;;;;;;;;;5009718;28;20427;-80
2022/11/03 06:28:46;;;;;;;11.52;3.83;;;;;;;;;;5010500;28;20426;-80
2022/11/03 06:31:30;;;;;;;13.80;3.80;;;;;;;;;;5010721;28;20483;-77
2022/11/03 06:33:57;;;;;;;11.48;3.70;;;;;;;;;;5011441;28;20477;-77
2022/11/03 06:36:27;;;;;;;10.07;3.47;;;;;;;;;;5012602;28;20434;-77
2022/11/03 06:38:55;;;;;;;12.93;3.65;;;;;;;;;;5011903;28;20426;-78
2022/11/03 06:41:25;;;;;;;11.43;3.72;;;;;;;;;;4997855;28;20412;-77
2022/11/03 06:43:51;;;;;;;13.00;4.10;;;;;;;;;;4995786;28;20523;-87
2022/11/03 06:46:26;;;;;;;11.50;3.50;;;;;;;;;;5018362;28;20473;-87
2022/11/03 06:48:53;;;;;;;13.43;3.75;;;;;;;;;;5029429;28;20427;-87
2022/11/03 06:51:27;;;;;;;14.13;3.97;;;;;;;;;;5009554;28;20641;-87
2022/11/03 06:53:54;;;;;;;11.80;3.95;;;;;;;;;;5025228;28;20427;-88
2022/11/03 06:56:24;;;;;;;11.90;3.80;;;;;;;;;;5029490;28;20434;-87
2022/11/03 06:58:52;;;;;;;12.57;3.85;;;;;;;;;;5013451;28;20428;-86
2022/11/03 07:01:19;;;;;;;12.98;3.80;;;;;;;;;;5033105;28;20454;-87
2022/11/03 07:03:45;;;;;;;11.70;3.88;;;;;;;;;;5016130;28;20430;-88
2022/11/03 07:06:20;;;;;;;12.63;3.88;;;;;;;;;;5016034;28;20497;-88
2022/11/03 07:08:51;;;;;;;13.43;4.32;;;;;;;;;;5032205;28;20447;-88
2022/11/03 07:11:18;;;;;;;12.15;4.10;;;;;;;;;;5029222;28;20468;-79
2022/11/03 07:13:45;;;;;;;14.05;4.30;;;;;;;;;;5019581;28;20425;-79
2022/11/03 07:16:13;;;;;;;13.85;4.10;;;;;;;;;;5018697;28;20468;-79
2022/11/03 07:18:43;;;;;;;15.48;4.30;;;;;;;;;;5016745;28;20447;-87
2022/11/03 07:21:24;;;;;;;13.55;4.32;;;;;;;;;;5015975;28;20419;-87
2022/11/03 07:23:50;;;;;;;13.07;3.95;;;;;;;;;;5032603;28;20414;-87
2022/11/03 07:26:16;;;;;;;13.60;4.00;;;;;;;;;;5032114;28;20466;-87
2022/11/03 07:28:42;;;;;;;11.33;3.73;;;;;;;;;;5031993;28;20427;-87
2022/11/03 07:31:19;;;;;;;13.87;4.20;;;;;;;;;;5016275;28;20399;-87
2022/11/03 07:33:45;;;;;;;16.40;4.00;;;;;;;;;;5016816;28;20445;-80
2022/11/03 07:36:15;;;;;;;14.07;4.15;;;;;;;;;;5015409;28;20493;-80
2022/11/03 07:38:42;;;;;;;12.55;4.03;;;;;;;;;;5016712;28;20553;-80
2022/11/03 07:41:15;;;;;;;14.25;4.00;;;;;;;;;;5016685;28;20403;-80
2022/11/03 07:43:41;;;;;;;13.85;4.20;;;;;;;;;;5015199;28;20423;-80
2022/11/03 07:46:14;;;;;;;12.43;4.17;;;;;;;;;;5010214;28;20442;-79
2022/11/03 07:48:46;;;;;;;13.63;4.20;;;;;;;;;;5015928;28;20421;-79
2022/11/03 07:51:20;;;;;;;13.93;3.97;;;;;;;;;;5032312;28;20415;-77
2022/11/03 07:53:48;;;;;;;14.00;4.20;;;;;;;;;;5016525;28;20450;-77
2022/11/03 07:56:21;;;;;;;11.70;4.03;;;;;;;;;;5016504;28;20427;-78
2022/11/03 07:58:50;;;;;;;16.02;4.05;;;;;;;;;;5015740;28;20437;-77
2022/11/03 08:01:22;;;;;;;14.52;4.28;;;;;;;;;;5031584;28;20418;-77
2022/11/03 08:03:49;;;;;;;13.77;4.10;;;;;;;;;;5030941;28;20422;-78
2022/11/03 08:06:15;;;;;;;13.77;3.95;;;;;;;;;;5010710;28;20439;-78
2022/11/03 08:08:41;;;;;;;11.50;3.50;;;;;;;;;;5027370;28;20522;-79
2022/11/03 08:11:07;;;;;;;14.88;4.15;;;;;;;;;;5029540;28;20423;-79
2022/11/03 08:13:33;;;;;;;12.38;3.85;;;;;;;;;;5031213;28;20422;-79
2022/11/03 08:15:59;;;;;;;14.33;4.00;;;;;;;;;;5015182;28;20465;-79
2022/11/03 08:18:25;;;;;;;12.75;3.90;;;;;;;;;;5015870;28;20477;-80
2022/11/03 08:20:51;;;;;;;11.10;3.70;;;;;;;;;;5031259;28;20416;-80
2022/11/03 08:23:18;;;;;;;13.18;4.18;;;;;;;;;;5015760;28;20410;-81
2022/11/03 08:25:44;;;;;;;11.02;3.88;;;;;;;;;;5030846;28;20423;-81
2022/11/03 08:28:10;;;;;;;13.85;3.88;;;;;;;;;;5014360;28;20439;-81
2022/11/03 08:30:36;;;;;;;15.13;3.95;;;;;;;;;;5015373;28;20411;-80
2022/11/03 08:33:02;;;;;;;12.18;3.85;;;;;;;;;;4998453;28;20408;-80
2022/11/03 08:35:28;;;;;;;14.70;4.00;;;;;;;;;;5014501;28;20406;-80
2022/11/03 08:37:54;;;;;;;10.80;3.78;;;;;;;;;;5016088;28;20469;-80
2022/11/03 08:40:20;;;;;;;12.05;3.95;;;;;;;;;;5014870;28;20425;-80
2022/11/03 08:42:46;;;;;;;12.03;3.80;;;;;;;;;;5015999;28;20426;-80
2022/11/03 08:45:12;;;;;;;12.40;3.30;;;;;;;;;;4998894;28;20213;-80
2022/11/03 08:47:38;;;;;;;11.05;3.75;;;;;;;;;;5014850;28;20474;-80
2022/11/03 08:50:04;;;;;;;13.67;3.67;;;;;;;;;;5015399;28;20178;-80
2022/11/03 08:52:30;;;;;;;11.50;3.37;;;;;;;;;;5015458;28;20184;-80
2022/11/03 08:54:56;;;;;;;11.60;3.50;;;;;;;;;;5014865;28;20201;-80
2022/11/03 08:57:22;;;;;;;14.93;3.83;;;;;;;;;;5016224;28;20212;-80
2022/11/03 08:59:51;;;;;;;13.03;3.53;;;;;;;;;;5014979;28;20185;-80
2022/11/03 09:02:17;;;;;;;13.37;3.47;;;;;;;;;;5030819;28;20197;-80
2022/11/03 09:04:43;;;;;;;11.53;3.20;;;;;;;;;;5030795;28;20239;-80
2022/11/03 09:07:09;;;;;;;8.80;3.57;;;;;;;;;;4997651;28;20214;-80
2022/11/03 09:09:35;;;;;;;12.23;3.97;;;;;;;;;;5009417;28;20256;-80
2022/11/03 09:12:01;;;;;;;12.70;3.70;;;;;;;;;;4998292;28;20235;-80
2022/11/03 09:14:27;;;;;;;12.73;3.70;;;;;;;;;;5030788;28;20181;-88
2022/11/03 09:16:53;;;;;;;11.03;3.60;;;;;;;;;;5014667;28;20189;-87
2022/11/03 09:19:19;;;;;;;12.90;4.30;;;;;;;;;;5016378;28;20576;-89
2022/11/03 09:21:45;;;;;;;11.30;4.13;;;;;;;;;;4999957;28;20435;-88
2022/11/03 09:24:11;;;;;;;11.10;3.70;;;;;;;;;;5030782;28;20189;-89
2022/11/03 09:26:37;;;;;;;15.38;4.22;;;;;;;;;;5014556;28;20442;-89
2022/11/03 09:29:03;;;;;;;12.13;4.30;;;;;;;;;;5011945;28;20431;-87
2022/11/03 09:31:29;;;;;;;12.15;4.05;;;;;;;;;;5014118;28;20457;-78
2022/11/03 09:33:55;;;;;;;12.10;4.20;;;;;;;;;;5010071;28;20461;-78
2022/11/03 09:36:21;;;;;;;13.02;4.10;;;;;;;;;;5011181;28;20425;-78
2022/11/03 09:38:47;;;;;;;12.53;4.00;;;;;;;;;;5002940;28;20445;-77
2022/11/03 09:41:16;;;;;;;13.00;4.20;;;;;;;;;;5008336;28;20461;-77
2022/11/03 09:43:45;;;;;;;11.05;3.80;;;;;;;;;;5012798;28;20419;-77
2022/11/03 09:46:12;;;;;;;13.20;4.15;;;;;;;;;;5012718;28;20438;-78
2022/11/03 09:48:38;;;;;;;13.95;4.13;;;;;;;;;;5012692;28;21590;-80
2022/11/03 09:51:04;;;;;;;10.70;3.90;;;;;;;;;;5013280;28;20423;-80
2022/11/03 09:53:30;;;;;;;15.18;4.25;;;;;;;;;;5012316;28;20404;-78
2022/11/03 09:55:56;;;;;;;11.25;3.90;;;;;;;;;;4996569;28;20517;-78
2022/11/03 09:58:22;;;;;;;11.83;3.67;;;;;;;;;;4996203;28;20450;-78
2022/11/03 10:00:48;;;;;;;9.32;3.67;;;;;;;;;;5012535;28;20529;-78
2022/11/03 10:03:16;;;;;;;12.00;3.87;;;;;;;;;;5012943;28;20426;-79
2022/11/03 10:05:44;;;;;;;13.02;3.85;;;;;;;;;;5009610;28;20479;-80
2022/11/03 10:08:30;;;;;;;10.45;3.70;;;;;;;;;;5012899;28;20440;-80
2022/11/03 10:10:57;;;;;;;10.27;3.60;;;;;;;;;;5011871;28;20450;-80
2022/11/03 10:13:26;;;;;;;10.13;3.17;;;;;;;;;;5013433;28;20188;-80
2022/11/03 10:15:52;;;;;;;10.47;3.30;;;;;;;;;;5012506;28;20181;-80
2022/11/03 10:18:18;;;;;;;10.20;3.20;;;;;;;;;;5014543;28;20179;-80
2022/11/03 10:20:45;;;;;;;8.43;3.40;;;;;;;;;;5013332;28;20188;-87
2022/11/03 10:23:11;;;;;;;14.53;3.40;;;;;;;;;;5029748;28;20181;-88
2022/11/03 10:25:38;;;;;;;12.97;3.77;;;;;;;;;;5012126;28;20216;-89
2022/11/03 10:28:13;;;;;;;11.83;3.20;;;;;;;;;;5013137;28;20244;-88
2022/11/03 10:30:48;;;;;;;12.93;3.47;;;;;;;;;;5023802;28;20183;-81
2022/11/03 10:33:50;;;;;;;13.18;3.83;;;;;;;;;;5032026;28;20422;-80
2022/11/03 10:36:16;;;;;;;10.40;3.70;;;;;;;;;;5005425;28;20467;-80
2022/11/03 10:38:43;;;;;;;9.57;3.40;;;;;;;;;;5006494;28;20473;-77
2022/11/03 10:41:10;;;;;;;9.15;3.30;;;;;;;;;;5029112;28;20473;-77
2022/11/03 10:43:37;;;;;;;7.93;3.30;;;;;;;;;;5018030;28;20411;-77
2022/11/03 10:46:20;;;;;;;9.80;3.73;;;;;;;;;;5028536;28;20470;-77
2022/11/03 10:49:02;;;;;;;10.25;3.60;;;;;;;;;;5024267;28;20477;-77
2022/11/03 10:51:28;;;;;;;6.83;2.63;;;;;;;;;;5009055;28;20186;-78
2022/11/03 10:53:55;;;;;;;7.82;3.35;;;;;;;;;;5008733;28;20420;-87
2022/11/03 10:56:21;;;;;;;8.43;3.40;;;;;;;;;;5021931;28;20435;-87
2022/11/03 10:58:48;;;;;;;6.00;2.80;;;;;;;;;;5008294;28;20194;-89
2022/11/03 11:01:14;;;;;;;8.83;3.30;;;;;;;;;;5008157;28;20280;-89
2022/11/03 11:03:41;;;;;;;9.43;3.58;;;;;;;;;;5012585;28;20419;-88
2022/11/03 11:06:28;;;;;;;12.23;3.30;;;;;;;;;;5012343;28;20236;-88
2022/11/03 11:08:59;;;;;;;11.10;2.87;;;;;;;;;;5013163;28;20263;-88
2022/11/03 11:11:25;;;;;;;8.50;3.10;;;;;;;;;;5012647;28;20173;-89
2022/11/03 11:14:10;;;;;;;9.27;3.10;;;;;;;;;;4996267;28;20182;-89
2022/11/03 11:16:50;;;;;;;9.00;2.80;;;;;;;;;;5013269;28;20192;-89
2022/11/03 11:19:16;;;;;;;8.40;2.80;;;;;;;;;;5010690;28;20189;-88
2022/11/03 11:21:41;;;;;;;9.13;3.40;;;;;;;;;;4993952;28;20443;-87
2022/11/03 11:24:09;;;;;;;8.18;3.38;;;;;;;;;;5011631;28;20437;-89
2022/11/03 11:26:35;;;;;;;13.15;3.50;;;;;;;;;;5012174;28;20493;-81
2022/11/03 11:29:04;;;;;;;10.25;3.50;;;;;;;;;;4992621;28;20409;-80
2022/11/03 11:31:31;;;;;;;8.98;3.22;;;;;;;;;;4993669;28;20439;-80
2022/11/03 11:34:09;;;;;;;10.30;3.60;;;;;;;;;;4993370;28;20444;-80
2022/11/03 11:36:55;;;;;;;10.05;3.20;;;;;;;;;;5025029;28;20411;-80
2022/11/03 11:39:27;;;;;;;10.88;3.40;;;;;;;;;;5025302;28;20438;-80
2022/11/03 11:42:12;;;;;;;8.20;2.90;;;;;;;;;;5026866;28;20197;-80
2022/11/03 11:44:44;;;;;;;9.82;2.80;;;;;;;;;;5032220;28;20430;-80
2022/11/03 11:47:30;;;;;;;8.93;3.00;;;;;;;;;;5036439;28;20205;-80
2022/11/03 11:50:05;;;;;;;12.87;3.17;;;;;;;;;;5032739;28;20177;-80
2022/11/03 11:52:57;;;;;;;12.40;3.53;;;;;;;;;;5029423;28;20188;-80
2022/11/03 11:55:31;;;;;;;11.17;2.97;;;;;;;;;;5013202;28;20189;-80
2022/11/03 11:57:58;;;;;;;8.37;3.13;;;;;;;;;;5014040;28;20181;-80
2022/11/03 12:00:25;;;;;;;12.93;3.20;;;;;;;;;;5014862;28;20193;-78
2022/11/03 12:02:55;;;;;;;9.37;2.93;;;;;;;;;;5013914;28;20177;-77
2022/11/03 12:05:26;;;;;;;9.27;2.97;;;;;;;;;;5014853;28;20193;-77
2022/11/03 12:07:52;;;;;;;10.70;3.15;;;;;;;;;;5010950;28;20493;-78
2022/11/03 12:10:25;;;;;;;7.70;2.80;;;;;;;;;;5030043;23;20232;-80
2022/11/03 12:12:51;;;;;;;7.33;2.80;;;;;;;;;;5010250;28;20193;-80
2022/11/03 12:15:35;;;;;;;7.30;2.67;;;;;;;;;;5016278;28;20181;-80
2022/11/03 12:18:21;;;;;;;9.37;2.90;;;;;;;;;;5010859;28;20181;-77
2022/11/03 12:20:47;;;;;;;11.07;3.00;;;;;;;;;;5000352;28;20183;-78
2022/11/03 12:23:31;;;;;;;6.23;2.60;;;;;;;;;;5015153;28;20189;-78
2022/11/03 12:25:57;;;;;;;11.30;3.17;;;;;;;;;;5014379;28;20431;-89
2022/11/03 12:28:30;;;;;;;6.50;2.60;;;;;;;;;;4998979;28;20273;-89
2022/11/03 12:30:56;;;;;;;11.90;3.25;;;;;;;;;;4998455;28;20414;-90
2022/11/03 12:33:22;;;;;;;8.30;2.73;;;;;;;;;;5015456;28;20173;-78
2022/11/03 12:35:49;;;;;;;8.20;2.27;;;;;;;;;;4996716;28;20196;-78
2022/11/03 12:38:15;;;;;;;8.73;2.70;;;;;;;;;;5013366;28;20240;-78
2022/11/03 12:40:41;;;;;;;10.63;3.13;;;;;;;;;;5014938;28;20411;-78
2022/11/03 12:43:07;;;;;;;11.23;2.97;;;;;;;;;;5014904;28;20185;-78
2022/11/03 12:45:33;;;;;;;7.23;2.60;;;;;;;;;;5013554;28;20203;-78
2022/11/03 12:47:59;;;;;;;9.07;2.83;;;;;;;;;;5014443;28;20216;-77
2022/11/03 12:50:26;;;;;;;9.37;2.60;;;;;;;;;;4997498;28;20288;-80
2022/11/03 12:52:52;;;;;;;9.20;3.00;;;;;;;;;;4997704;28;20422;-80
2022/11/03 12:55:18;;;;;;;7.82;2.90;;;;;;;;;;5013700;28;20446;-80
2022/11/03 12:57:45;;;;;;;6.07;2.10;;;;;;;;;;5014370;28;20186;-80
2022/11/03 13:00:11;;;;;;;8.07;2.83;;;;;;;;;;4998353;28;20505;-80
2022/11/03 13:02:37;;;;;;;11.52;2.70;;;;;;;;;;5014573;28;20431;-80
2022/11/03 13:05:04;;;;;;;7.38;2.70;;;;;;;;;;4996769;28;20490;-80
2022/11/03 13:07:30;;;;;;;7.80;2.90;;;;;;;;;;5013256;28;20479;-80
2022/11/03 13:09:56;;;;;;;6.90;2.58;;;;;;;;;;4997749;28;20435;-80
2022/11/03 13:12:31;;;;;;;6.63;2.50;;;;;;;;;;4997468;28;20423;-80
2022/11/03 13:14:58;;;;;;;9.02;2.90;;;;;;;;;;4996242;28;20435;-80
2022/11/03 13:17:24;;;;;;;7.70;2.60;;;;;;;;;;5030447;28;20422;-80
2022/11/03 13:19:50;;;;;;;5.70;2.60;;;;;;;;;;5013497;28;20441;-80
2022/11/03 13:22:16;;;;;;;7.35;2.72;;;;;;;;;;4996825;28;20481;-80
2022/11/03 13:24:42;;;;;;;8.02;2.65;;;;;;;;;;4996051;28;20438;-77
2022/11/03 13:27:08;;;;;;;9.43;2.27;;;;;;;;;;5013864;28;20197;-78
2022/11/03 13:29:35;;;;;;;5.43;2.07;;;;;;;;;;5013562;28;20197;-77
2022/11/03 13:32:02;;;;;;;10.60;2.57;;;;;;;;;;5015309;28;20200;-78
2022/11/03 13:34:28;;;;;;;8.20;2.55;;;;;;;;;;5013570;28;20458;-77
2022/11/03 13:36:54;;;;;;;8.68;2.50;;;;;;;;;;4995956;28;20438;-77
2022/11/03 13:39:20;;;;;;;6.60;2.40;;;;;;;;;;4996469;28;20427;-77
2022/11/03 13:41:46;;;;;;;7.13;2.60;;;;;;;;;;4996773;28;20419;-80
2022/11/03 13:44:12;;;;;;;6.90;2.30;;;;;;;;;;5014515;28;20181;-80
2022/11/03 13:46:38;;;;;;;8.15;2.65;;;;;;;;;;5012639;28;20450;-80
2022/11/03 13:49:05;;;;;;;6.63;2.35;;;;;;;;;;4995774;28;20431;-80
2022/11/03 13:51:31;;;;;;;4.50;2.17;;;;;;;;;;5014017;28;20180;-80
2022/11/03 13:53:57;;;;;;;8.77;2.40;;;;;;;;;;4998016;28;20269;-79
2022/11/03 13:56:23;;;;;;;6.87;2.03;;;;;;;;;;5014046;28;20185;-80
2022/11/03 13:58:49;;;;;;;6.07;2.03;;;;;;;;;;5014167;28;20184;-78
2022/11/03 14:01:15;;;;;;;8.50;2.58;;;;;;;;;;4996804;28;20477;-77
2022/11/03 14:03:41;;;;;;;8.47;2.47;;;;;;;;;;4997028;28;20189;-78
2022/11/03 14:06:07;;;;;;;11.20;2.88;;;;;;;;;;4994752;28;20438;-77
2022/11/03 14:08:33;;;;;;;7.30;2.53;;;;;;;;;;5012711;28;20434;-77
2022/11/03 14:12:29;;;;;;;7.22;2.60;;;;;;;;;;5012759;28;20525;-77
2022/11/03 14:13:45;;;;;;;8.05;2.70;;;;;;;;;;5014104;28;20411;-79
2022/11/03 14:16:11;;;;;;;8.25;2.85;;;;;;;;;;5021198;28;20428;-80
2022/11/03 14:18:37;;;;;;;7.82;2.90;;;;;;;;;;4996261;28;20557;-80
2022/11/03 14:21:04;;;;;;;6.68;2.70;;;;;;;;;;5012824;28;20561;-80
2022/11/03 14:23:30;;;;;;;10.90;2.60;;;;;;;;;;5009157;28;20193;-80
2022/11/03 14:25:56;;;;;;;7.95;2.70;;;;;;;;;;4995816;28;20431;-80
2022/11/03 14:28:23;;;;;;;6.27;2.70;;;;;;;;;;5017736;28;20201;-80
2022/11/03 14:30:49;;;;;;;9.00;3.10;;;;;;;;;;5025227;28;20484;-88
2022/11/03 14:33:15;;;;;;;9.45;2.72;;;;;;;;;;5011708;28;20517;-88
2022/11/03 14:35:41;;;;;;;10.38;2.90;;;;;;;;;;4994474;28;20438;-88
2022/11/03 14:38:07;;;;;;;11.03;2.70;;;;;;;;;;5019644;28;20188;-87
2022/11/03 14:43:18;;;;;;;9.30;3.10;;;;;;;;;;5010558;28;20504;-88
2022/11/03 14:45:44;;;;;;;11.20;3.17;;;;;;;;;;4996261;28;20418;-87
2022/11/03 14:48:10;;;;;;;7.95;3.10;;;;;;;;;;5004308;28;20495;-79
2022/11/03 14:50:36;;;;;;;7.60;2.50;;;;;;;;;;5027212;28;20185;-79
2022/11/03 14:53:02;;;;;;;12.20;2.90;;;;;;;;;;5013953;28;20208;-79
2022/11/03 14:55:28;;;;;;;8.87;2.60;;;;;;;;;;4995910;28;20193;-79
2022/11/03 14:57:54;;;;;;;5.93;2.73;;;;;;;;;;5003279;28;20268;-79
2022/11/03 15:00:20;;;;;;;6.43;2.77;;;;;;;;;;5009075;28;20292;-79
2022/11/03 15:02:45;;;;;;;8.33;3.13;;;;;;;;;;4997147;28;20186;-80
2022/11/03 15:05:42;;;;;;;6.83;2.70;;;;;;;;;;5012522;28;20185;-80